sensor_id;sensor_type;location;lat;lon;timestamp;temperature;humidity
12043;DHT22;6082;49.306;12.862;2023-07-28T00:01:36;16.70;99.90
12043;DHT22;6082;49.306;12.862;2023-07-28T00:04:02;16.70;99.90
12043;DHT22;6082;49.306;12.862;2023-07-28T00:06:32;16.70;99.90
12043;DHT22;6082;49.306;12.862;2023-07-28T00:08:58;16.70;99.90
12043;DHT22;6082;49.306;12.862;2023-07-28T00:11:24;16.70;99.90
12043;DHT22;6082;49.306;12.862;2023-07-28T00:13:50;16.70;99.90
12043;DHT22;6082;49.306;12.862;2023-07-28T00:16:16;16.60;99.90
12043;DHT22;6082;49.306;12.862;2023-07-28T00:18:41;16.60;99.90
12043;DHT22;6082;49.306;12.862;2023-07-28T00:21:07;16.70;99.90
12043;DHT22;6082;49.306;12.862;2023-07-28T00:23:33;16.70;99.90
12043;DHT22;6082;49.306;12.862;2023-07-28T00:25:58;16.70;99.90
12043;DHT22;6082;49.306;12.862;2023-07-28T00:28:24;16.70;99.90
12043;DHT22;6082;49.306;12.862;2023-07-28T00:30:50;16.60;99.90
12043;DHT22;6082;49.306;12.862;2023-07-28T00:33:16;16.60;99.90
12043;DHT22;6082;49.306;12.862;2023-07-28T00:35:42;16.60;99.90
12043;DHT22;6082;49.306;12.862;2023-07-28T00:38:08;16.60;99.90
12043;DHT22;6082;49.306;12.862;2023-07-28T00:40:35;16.60;99.90
12043;DHT22;6082;49.306;12.862;2023-07-28T00:43:01;16.60;99.90
12043;DHT22;6082;49.306;12.862;2023-07-28T00:45:28;16.60;99.90
12043;DHT22;6082;49.306;12.862;2023-07-28T00:47:55;16.60;99.90
12043;DHT22;6082;49.306;12.862;2023-07-28T00:50:24;16.60;99.90
12043;DHT22;6082;49.306;12.862;2023-07-28T00:52:50;16.60;99.90
12043;DHT22;6082;49.306;12.862;2023-07-28T00:55:16;16.60;99.90
12043;DHT22;6082;49.306;12.862;2023-07-28T00:57:42;16.60;99.90
12043;DHT22;6082;49.306;12.862;2023-07-28T01:00:11;16.60;99.90
12043;DHT22;6082;49.306;12.862;2023-07-28T01:02:37;16.60;99.90
12043;DHT22;6082;49.306;12.862;2023-07-28T01:05:04;16.60;99.90
12043;DHT22;6082;49.306;12.862;2023-07-28T01:08:09;16.60;99.90
12043;DHT22;6082;49.306;12.862;2023-07-28T01:10:30;16.60;99.90
12043;DHT22;6082;49.306;12.862;2023-07-28T01:12:57;16.60;99.90
12043;DHT22;6082;49.306;12.862;2023-07-28T01:15:23;16.60;99.90
12043;DHT22;6082;49.306;12.862;2023-07-28T01:17:49;16.60;99.90
12043;DHT22;6082;49.306;12.862;2023-07-28T01:20:16;16.60;99.90
12043;DHT22;6082;49.306;12.862;2023-07-28T01:27:58;16.60;99.90
12043;DHT22;6082;49.306;12.862;2023-07-28T01:30:27;16.60;99.90
12043;DHT22;6082;49.306;12.862;2023-07-28T01:32:57;16.60;99.90
12043;DHT22;6082;49.306;12.862;2023-07-28T01:35:25;16.60;99.90
12043;DHT22;6082;49.306;12.862;2023-07-28T01:37:51;16.60;99.90
12043;DHT22;6082;49.306;12.862;2023-07-28T01:40:18;16.60;99.90
12043;DHT22;6082;49.306;12.862;2023-07-28T01:42:44;16.60;99.90
12043;DHT22;6082;49.306;12.862;2023-07-28T01:45:09;16.60;99.90
12043;DHT22;6082;49.306;12.862;2023-07-28T01:47:35;16.70;99.90
12043;DHT22;6082;49.306;12.862;2023-07-28T01:50:01;16.70;99.90
12043;DHT22;6082;49.306;12.862;2023-07-28T01:52:27;16.70;99.90
12043;DHT22;6082;49.306;12.862;2023-07-28T01:54:52;16.70;99.90
12043;DHT22;6082;49.306;12.862;2023-07-28T01:57:18;16.70;99.90
12043;DHT22;6082;49.306;12.862;2023-07-28T01:59:44;16.70;99.90
12043;DHT22;6082;49.306;12.862;2023-07-28T02:02:10;16.70;99.90
12043;DHT22;6082;49.306;12.862;2023-07-28T02:04:38;16.70;99.90
12043;DHT22;6082;49.306;12.862;2023-07-28T02:07:04;16.70;99.90
12043;DHT22;6082;49.306;12.862;2023-07-28T02:09:30;16.70;99.90
12043;DHT22;6082;49.306;12.862;2023-07-28T02:11:56;16.70;99.90
12043;DHT22;6082;49.306;12.862;2023-07-28T02:14:21;16.70;99.90
12043;DHT22;6082;49.306;12.862;2023-07-28T02:16:47;16.70;99.90
12043;DHT22;6082;49.306;12.862;2023-07-28T02:19:13;16.70;99.90
12043;DHT22;6082;49.306;12.862;2023-07-28T02:21:38;16.80;99.90
12043;DHT22;6082;49.306;12.862;2023-07-28T02:24:04;16.80;99.90
12043;DHT22;6082;49.306;12.862;2023-07-28T02:26:30;16.80;99.90
12043;DHT22;6082;49.306;12.862;2023-07-28T02:28:56;16.80;99.90
12043;DHT22;6082;49.306;12.862;2023-07-28T02:31:22;16.80;99.90
12043;DHT22;6082;49.306;12.862;2023-07-28T02:33:47;16.80;99.90
12043;DHT22;6082;49.306;12.862;2023-07-28T02:36:13;16.80;99.90
12043;DHT22;6082;49.306;12.862;2023-07-28T02:38:39;16.80;99.90
12043;DHT22;6082;49.306;12.862;2023-07-28T02:41:04;16.80;99.90
12043;DHT22;6082;49.306;12.862;2023-07-28T02:43:30;16.80;99.90
12043;DHT22;6082;49.306;12.862;2023-07-28T02:45:57;16.80;99.90
12043;DHT22;6082;49.306;12.862;2023-07-28T02:48:23;16.80;99.90
12043;DHT22;6082;49.306;12.862;2023-07-28T02:50:50;16.80;99.90
12043;DHT22;6082;49.306;12.862;2023-07-28T02:53:17;16.80;99.90
12043;DHT22;6082;49.306;12.862;2023-07-28T02:55:43;16.80;99.90
12043;DHT22;6082;49.306;12.862;2023-07-28T02:58:10;16.80;99.90
12043;DHT22;6082;49.306;12.862;2023-07-28T03:00:43;16.80;99.90
12043;DHT22;6082;49.306;12.862;2023-07-28T03:03:10;16.80;99.90
12043;DHT22;6082;49.306;12.862;2023-07-28T03:05:37;16.80;99.90
12043;DHT22;6082;49.306;12.862;2023-07-28T03:08:03;16.80;99.90
12043;DHT22;6082;49.306;12.862;2023-07-28T03:10:29;16.80;99.90
12043;DHT22;6082;49.306;12.862;2023-07-28T03:12:55;16.80;99.90
12043;DHT22;6082;49.306;12.862;2023-07-28T03:15:21;16.80;99.90
12043;DHT22;6082;49.306;12.862;2023-07-28T03:17:50;16.80;99.90
12043;DHT22;6082;49.306;12.862;2023-07-28T03:20:16;16.80;99.90
12043;DHT22;6082;49.306;12.862;2023-07-28T03:22:43;16.90;99.90
12043;DHT22;6082;49.306;12.862;2023-07-28T03:25:09;16.80;99.90
12043;DHT22;6082;49.306;12.862;2023-07-28T03:27:35;16.90;99.90
12043;DHT22;6082;49.306;12.862;2023-07-28T03:30:01;16.90;99.90
12043;DHT22;6082;49.306;12.862;2023-07-28T03:32:26;16.90;99.90
12043;DHT22;6082;49.306;12.862;2023-07-28T03:34:52;16.90;99.90
12043;DHT22;6082;49.306;12.862;2023-07-28T03:37:18;16.90;99.90
12043;DHT22;6082;49.306;12.862;2023-07-28T03:39:44;16.90;99.90
12043;DHT22;6082;49.306;12.862;2023-07-28T03:42:10;16.90;99.90
12043;DHT22;6082;49.306;12.862;2023-07-28T03:44:36;16.90;99.90
12043;DHT22;6082;49.306;12.862;2023-07-28T03:47:07;16.90;99.90
12043;DHT22;6082;49.306;12.862;2023-07-28T03:49:33;16.90;99.90
12043;DHT22;6082;49.306;12.862;2023-07-28T03:51:58;16.90;99.90
12043;DHT22;6082;49.306;12.862;2023-07-28T03:54:24;16.90;99.90
12043;DHT22;6082;49.306;12.862;2023-07-28T03:56:50;16.90;99.90
12043;DHT22;6082;49.306;12.862;2023-07-28T03:59:16;16.90;99.90
12043;DHT22;6082;49.306;12.862;2023-07-28T04:01:42;16.90;99.90
12043;DHT22;6082;49.306;12.862;2023-07-28T04:04:07;16.90;99.90
12043;DHT22;6082;49.306;12.862;2023-07-28T04:06:47;16.90;99.90
12043;DHT22;6082;49.306;12.862;2023-07-28T04:09:16;16.90;99.90
12043;DHT22;6082;49.306;12.862;2023-07-28T04:11:42;16.90;99.90
12043;DHT22;6082;49.306;12.862;2023-07-28T04:14:08;16.90;99.90
12043;DHT22;6082;49.306;12.862;2023-07-28T04:16:34;16.90;99.90
12043;DHT22;6082;49.306;12.862;2023-07-28T04:19:00;16.90;99.90
12043;DHT22;6082;49.306;12.862;2023-07-28T04:21:25;16.80;99.90
12043;DHT22;6082;49.306;12.862;2023-07-28T04:23:51;16.80;99.90
12043;DHT22;6082;49.306;12.862;2023-07-28T04:26:18;16.80;99.90
12043;DHT22;6082;49.306;12.862;2023-07-28T04:28:44;16.90;99.90
12043;DHT22;6082;49.306;12.862;2023-07-28T04:31:10;16.80;99.90
12043;DHT22;6082;49.306;12.862;2023-07-28T04:33:36;16.80;99.90
12043;DHT22;6082;49.306;12.862;2023-07-28T04:36:03;16.80;99.90
12043;DHT22;6082;49.306;12.862;2023-07-28T04:38:28;16.80;99.90
12043;DHT22;6082;49.306;12.862;2023-07-28T04:40:54;16.80;99.90
12043;DHT22;6082;49.306;12.862;2023-07-28T04:43:20;16.80;99.90
12043;DHT22;6082;49.306;12.862;2023-07-28T04:45:46;16.80;99.90
12043;DHT22;6082;49.306;12.862;2023-07-28T04:48:12;16.90;99.90
12043;DHT22;6082;49.306;12.862;2023-07-28T04:50:37;16.80;99.90
12043;DHT22;6082;49.306;12.862;2023-07-28T04:53:03;16.80;99.90
12043;DHT22;6082;49.306;12.862;2023-07-28T04:55:29;16.90;99.90
12043;DHT22;6082;49.306;12.862;2023-07-28T04:57:56;16.90;99.90
12043;DHT22;6082;49.306;12.862;2023-07-28T05:00:22;16.90;99.90
12043;DHT22;6082;49.306;12.862;2023-07-28T05:02:48;16.90;99.90
12043;DHT22;6082;49.306;12.862;2023-07-28T05:05:14;16.90;99.90
12043;DHT22;6082;49.306;12.862;2023-07-28T05:07:40;16.90;99.90
12043;DHT22;6082;49.306;12.862;2023-07-28T05:10:06;16.90;99.90
12043;DHT22;6082;49.306;12.862;2023-07-28T05:12:32;16.90;99.90
12043;DHT22;6082;49.306;12.862;2023-07-28T05:14:58;16.90;99.90
12043;DHT22;6082;49.306;12.862;2023-07-28T05:17:23;16.90;99.90
12043;DHT22;6082;49.306;12.862;2023-07-28T05:19:50;16.90;99.90
12043;DHT22;6082;49.306;12.862;2023-07-28T05:22:16;16.90;99.90
12043;DHT22;6082;49.306;12.862;2023-07-28T05:24:42;16.90;99.90
12043;DHT22;6082;49.306;12.862;2023-07-28T05:27:09;16.90;99.90
12043;DHT22;6082;49.306;12.862;2023-07-28T05:29:35;17.00;99.90
12043;DHT22;6082;49.306;12.862;2023-07-28T05:32:01;17.00;99.90
12043;DHT22;6082;49.306;12.862;2023-07-28T05:34:27;17.00;99.90
12043;DHT22;6082;49.306;12.862;2023-07-28T05:36:52;16.90;99.90
12043;DHT22;6082;49.306;12.862;2023-07-28T05:39:18;17.00;99.90
12043;DHT22;6082;49.306;12.862;2023-07-28T05:41:44;17.00;99.90
12043;DHT22;6082;49.306;12.862;2023-07-28T05:44:10;17.00;99.90
12043;DHT22;6082;49.306;12.862;2023-07-28T05:46:35;17.00;99.90
12043;DHT22;6082;49.306;12.862;2023-07-28T05:49:04;17.00;99.90
12043;DHT22;6082;49.306;12.862;2023-07-28T05:51:30;17.00;99.90
12043;DHT22;6082;49.306;12.862;2023-07-28T05:53:56;17.00;99.90
12043;DHT22;6082;49.306;12.862;2023-07-28T05:56:22;17.00;99.90
12043;DHT22;6082;49.306;12.862;2023-07-28T05:58:48;17.00;99.90
12043;DHT22;6082;49.306;12.862;2023-07-28T06:01:14;17.00;99.90
12043;DHT22;6082;49.306;12.862;2023-07-28T06:03:40;17.00;99.90
12043;DHT22;6082;49.306;12.862;2023-07-28T06:06:06;17.00;99.90
12043;DHT22;6082;49.306;12.862;2023-07-28T06:08:32;17.00;99.90
12043;DHT22;6082;49.306;12.862;2023-07-28T06:10:58;17.00;99.90
12043;DHT22;6082;49.306;12.862;2023-07-28T06:13:24;17.10;99.90
12043;DHT22;6082;49.306;12.862;2023-07-28T06:15:52;17.10;99.90
12043;DHT22;6082;49.306;12.862;2023-07-28T06:18:18;17.10;99.90
12043;DHT22;6082;49.306;12.862;2023-07-28T06:20:44;17.10;99.90
12043;DHT22;6082;49.306;12.862;2023-07-28T06:23:10;17.20;99.90
12043;DHT22;6082;49.306;12.862;2023-07-28T06:25:35;17.20;99.90
12043;DHT22;6082;49.306;12.862;2023-07-28T06:28:03;17.30;99.90
12043;DHT22;6082;49.306;12.862;2023-07-28T06:30:29;17.30;99.90
12043;DHT22;6082;49.306;12.862;2023-07-28T06:32:56;17.40;99.90
12043;DHT22;6082;49.306;12.862;2023-07-28T06:35:21;17.40;99.90
12043;DHT22;6082;49.306;12.862;2023-07-28T06:37:48;17.40;99.90
12043;DHT22;6082;49.306;12.862;2023-07-28T06:40:13;17.40;99.90
12043;DHT22;6082;49.306;12.862;2023-07-28T06:42:40;17.40;99.90
12043;DHT22;6082;49.306;12.862;2023-07-28T06:45:06;17.50;99.90
12043;DHT22;6082;49.306;12.862;2023-07-28T06:47:31;17.50;99.90
12043;DHT22;6082;49.306;12.862;2023-07-28T06:49:57;17.50;99.90
12043;DHT22;6082;49.306;12.862;2023-07-28T06:52:23;17.50;99.90
12043;DHT22;6082;49.306;12.862;2023-07-28T06:54:49;17.50;99.90
12043;DHT22;6082;49.306;12.862;2023-07-28T06:57:15;17.50;99.90
12043;DHT22;6082;49.306;12.862;2023-07-28T06:59:42;17.50;99.90
12043;DHT22;6082;49.306;12.862;2023-07-28T07:02:08;17.60;99.90
12043;DHT22;6082;49.306;12.862;2023-07-28T07:04:34;17.60;99.90
12043;DHT22;6082;49.306;12.862;2023-07-28T07:07:00;17.60;99.90
12043;DHT22;6082;49.306;12.862;2023-07-28T07:09:26;17.60;99.90
12043;DHT22;6082;49.306;12.862;2023-07-28T07:11:52;17.60;99.90
12043;DHT22;6082;49.306;12.862;2023-07-28T07:14:17;17.60;99.90
12043;DHT22;6082;49.306;12.862;2023-07-28T07:16:44;17.70;99.90
12043;DHT22;6082;49.306;12.862;2023-07-28T07:19:10;17.70;99.90
12043;DHT22;6082;49.306;12.862;2023-07-28T07:21:36;17.70;99.90
12043;DHT22;6082;49.306;12.862;2023-07-28T07:24:03;17.70;99.90
12043;DHT22;6082;49.306;12.862;2023-07-28T07:26:29;17.70;99.90
12043;DHT22;6082;49.306;12.862;2023-07-28T07:28:56;17.80;99.90
12043;DHT22;6082;49.306;12.862;2023-07-28T07:31:22;17.80;99.90
12043;DHT22;6082;49.306;12.862;2023-07-28T07:33:48;17.80;99.90
12043;DHT22;6082;49.306;12.862;2023-07-28T07:36:15;17.80;99.90
12043;DHT22;6082;49.306;12.862;2023-07-28T07:38:42;17.90;99.90
12043;DHT22;6082;49.306;12.862;2023-07-28T07:41:08;17.90;99.90
12043;DHT22;6082;49.306;12.862;2023-07-28T07:43:36;18.00;99.90
12043;DHT22;6082;49.306;12.862;2023-07-28T07:46:01;18.00;99.90
12043;DHT22;6082;49.306;12.862;2023-07-28T07:48:27;18.00;99.90
12043;DHT22;6082;49.306;12.862;2023-07-28T07:50:53;18.10;99.90
12043;DHT22;6082;49.306;12.862;2023-07-28T07:53:19;18.10;99.90
12043;DHT22;6082;49.306;12.862;2023-07-28T07:55:44;18.20;99.90
12043;DHT22;6082;49.306;12.862;2023-07-28T07:58:10;18.20;99.90
12043;DHT22;6082;49.306;12.862;2023-07-28T08:00:39;18.30;99.90
12043;DHT22;6082;49.306;12.862;2023-07-28T08:03:04;18.30;99.90
12043;DHT22;6082;49.306;12.862;2023-07-28T08:05:31;18.30;99.90
12043;DHT22;6082;49.306;12.862;2023-07-28T08:07:56;18.30;99.90
12043;DHT22;6082;49.306;12.862;2023-07-28T08:10:22;18.30;99.90
12043;DHT22;6082;49.306;12.862;2023-07-28T08:12:48;18.30;99.90
12043;DHT22;6082;49.306;12.862;2023-07-28T08:15:14;18.30;99.90
12043;DHT22;6082;49.306;12.862;2023-07-28T08:17:40;18.30;99.90
12043;DHT22;6082;49.306;12.862;2023-07-28T08:20:09;18.30;99.90
12043;DHT22;6082;49.306;12.862;2023-07-28T08:22:35;18.30;99.90
12043;DHT22;6082;49.306;12.862;2023-07-28T08:25:00;18.30;99.90
12043;DHT22;6082;49.306;12.862;2023-07-28T08:27:26;18.40;99.90
12043;DHT22;6082;49.306;12.862;2023-07-28T08:29:52;18.40;99.90
12043;DHT22;6082;49.306;12.862;2023-07-28T08:32:18;18.40;99.90
12043;DHT22;6082;49.306;12.862;2023-07-28T08:34:43;18.40;99.90
12043;DHT22;6082;49.306;12.862;2023-07-28T08:37:09;18.40;99.90
12043;DHT22;6082;49.306;12.862;2023-07-28T08:39:34;18.40;99.90
12043;DHT22;6082;49.306;12.862;2023-07-28T08:42:01;18.40;99.90
12043;DHT22;6082;49.306;12.862;2023-07-28T08:44:31;18.50;99.90
12043;DHT22;6082;49.306;12.862;2023-07-28T08:47:04;18.50;99.90
12043;DHT22;6082;49.306;12.862;2023-07-28T08:49:30;18.50;99.90
12043;DHT22;6082;49.306;12.862;2023-07-28T08:51:59;18.50;99.90
12043;DHT22;6082;49.306;12.862;2023-07-28T08:54:26;18.60;99.90
12043;DHT22;6082;49.306;12.862;2023-07-28T08:56:51;18.60;99.90
12043;DHT22;6082;49.306;12.862;2023-07-28T08:59:25;18.60;99.90
12043;DHT22;6082;49.306;12.862;2023-07-28T09:01:53;18.70;99.90
12043;DHT22;6082;49.306;12.862;2023-07-28T09:04:20;18.70;99.90
12043;DHT22;6082;49.306;12.862;2023-07-28T09:06:47;18.80;99.90
12043;DHT22;6082;49.306;12.862;2023-07-28T09:09:14;18.80;99.90
12043;DHT22;6082;49.306;12.862;2023-07-28T09:11:47;18.80;99.90
12043;DHT22;6082;49.306;12.862;2023-07-28T09:14:15;18.80;99.90
12043;DHT22;6082;49.306;12.862;2023-07-28T09:16:47;18.90;99.90
12043;DHT22;6082;49.306;12.862;2023-07-28T09:19:13;19.00;99.90
12043;DHT22;6082;49.306;12.862;2023-07-28T09:21:41;19.00;99.90
12043;DHT22;6082;49.306;12.862;2023-07-28T09:24:09;19.00;99.90
12043;DHT22;6082;49.306;12.862;2023-07-28T09:26:40;19.00;99.90
12043;DHT22;6082;49.306;12.862;2023-07-28T09:29:14;19.00;99.90
12043;DHT22;6082;49.306;12.862;2023-07-28T09:31:41;19.00;99.90
12043;DHT22;6082;49.306;12.862;2023-07-28T09:34:07;19.00;99.90
12043;DHT22;6082;49.306;12.862;2023-07-28T09:36:34;19.00;99.90
12043;DHT22;6082;49.306;12.862;2023-07-28T09:39:02;18.90;99.90
12043;DHT22;6082;49.306;12.862;2023-07-28T09:41:29;18.90;99.90
12043;DHT22;6082;49.306;12.862;2023-07-28T09:43:55;18.90;99.90
12043;DHT22;6082;49.306;12.862;2023-07-28T09:46:24;18.90;99.90
12043;DHT22;6082;49.306;12.862;2023-07-28T09:48:56;18.90;99.90
12043;DHT22;6082;49.306;12.862;2023-07-28T09:51:29;18.80;99.90
12043;DHT22;6082;49.306;12.862;2023-07-28T09:54:00;18.80;99.90
12043;DHT22;6082;49.306;12.862;2023-07-28T09:56:29;18.80;99.90
12043;DHT22;6082;49.306;12.862;2023-07-28T09:58:56;18.90;99.90
12043;DHT22;6082;49.306;12.862;2023-07-28T10:01:23;18.90;99.90
12043;DHT22;6082;49.306;12.862;2023-07-28T10:03:50;18.90;99.90
12043;DHT22;6082;49.306;12.862;2023-07-28T10:06:17;18.80;99.90
12043;DHT22;6082;49.306;12.862;2023-07-28T10:08:43;18.90;99.90
12043;DHT22;6082;49.306;12.862;2023-07-28T10:11:11;18.90;99.90
12043;DHT22;6082;49.306;12.862;2023-07-28T10:13:42;19.00;99.90
12043;DHT22;6082;49.306;12.862;2023-07-28T10:16:09;19.00;99.90
12043;DHT22;6082;49.306;12.862;2023-07-28T10:18:35;19.10;99.90
12043;DHT22;6082;49.306;12.862;2023-07-28T10:21:10;19.10;99.90
12043;DHT22;6082;49.306;12.862;2023-07-28T10:23:39;19.20;99.90
12043;DHT22;6082;49.306;12.862;2023-07-28T10:26:05;19.30;99.90
12043;DHT22;6082;49.306;12.862;2023-07-28T10:31:05;19.30;99.90
12043;DHT22;6082;49.306;12.862;2023-07-28T10:33:32;19.40;99.90
12043;DHT22;6082;49.306;12.862;2023-07-28T10:36:44;19.30;99.90
12043;DHT22;6082;49.306;12.862;2023-07-28T10:38:45;19.30;99.90
12043;DHT22;6082;49.306;12.862;2023-07-28T10:41:17;19.40;99.90
12043;DHT22;6082;49.306;12.862;2023-07-28T10:43:45;19.40;99.90
12043;DHT22;6082;49.306;12.862;2023-07-28T10:46:14;19.40;99.90
12043;DHT22;6082;49.306;12.862;2023-07-28T10:48:46;19.40;99.90
12043;DHT22;6082;49.306;12.862;2023-07-28T10:51:19;19.40;99.90
12043;DHT22;6082;49.306;12.862;2023-07-28T10:53:45;19.40;99.90
12043;DHT22;6082;49.306;12.862;2023-07-28T10:56:11;19.50;99.90
12043;DHT22;6082;49.306;12.862;2023-07-28T10:58:37;19.50;99.90
12043;DHT22;6082;49.306;12.862;2023-07-28T11:01:02;19.60;99.90
12043;DHT22;6082;49.306;12.862;2023-07-28T11:03:29;19.80;99.90
12043;DHT22;6082;49.306;12.862;2023-07-28T11:05:55;19.90;99.90
12043;DHT22;6082;49.306;12.862;2023-07-28T11:08:22;20.10;99.90
12043;DHT22;6082;49.306;12.862;2023-07-28T11:10:48;20.20;99.90
12043;DHT22;6082;49.306;12.862;2023-07-28T11:13:14;20.20;99.90
12043;DHT22;6082;49.306;12.862;2023-07-28T11:15:40;20.30;99.90
12043;DHT22;6082;49.306;12.862;2023-07-28T11:18:06;20.30;99.90
12043;DHT22;6082;49.306;12.862;2023-07-28T11:20:32;20.40;99.90
12043;DHT22;6082;49.306;12.862;2023-07-28T11:23:00;20.40;99.90
12043;DHT22;6082;49.306;12.862;2023-07-28T11:25:28;20.40;99.90
12043;DHT22;6082;49.306;12.862;2023-07-28T11:27:55;20.50;99.90
12043;DHT22;6082;49.306;12.862;2023-07-28T11:30:22;20.40;99.90
12043;DHT22;6082;49.306;12.862;2023-07-28T11:32:50;20.50;99.90
12043;DHT22;6082;49.306;12.862;2023-07-28T11:35:17;20.60;99.90
12043;DHT22;6082;49.306;12.862;2023-07-28T11:37:46;20.60;99.90
12043;DHT22;6082;49.306;12.862;2023-07-28T11:40:13;20.60;99.90
12043;DHT22;6082;49.306;12.862;2023-07-28T11:43:06;20.60;99.90
12043;DHT22;6082;49.306;12.862;2023-07-28T11:45:32;20.70;99.90
12043;DHT22;6082;49.306;12.862;2023-07-28T11:48:00;20.70;99.90
12043;DHT22;6082;49.306;12.862;2023-07-28T11:50:28;20.80;99.90
12043;DHT22;6082;49.306;12.862;2023-07-28T11:52:56;20.90;99.90
12043;DHT22;6082;49.306;12.862;2023-07-28T11:55:22;21.00;99.90
12043;DHT22;6082;49.306;12.862;2023-07-28T11:57:49;21.00;99.90
12043;DHT22;6082;49.306;12.862;2023-07-28T12:00:15;21.00;99.90
12043;DHT22;6082;49.306;12.862;2023-07-28T12:03:03;21.00;99.90
12043;DHT22;6082;49.306;12.862;2023-07-28T12:05:30;21.00;99.90
12043;DHT22;6082;49.306;12.862;2023-07-28T12:07:56;21.00;99.90
12043;DHT22;6082;49.306;12.862;2023-07-28T12:10:21;21.10;99.90
12043;DHT22;6082;49.306;12.862;2023-07-28T12:12:47;21.10;99.90
12043;DHT22;6082;49.306;12.862;2023-07-28T12:15:24;21.10;99.90
12043;DHT22;6082;49.306;12.862;2023-07-28T12:20:38;21.20;99.90
12043;DHT22;6082;49.306;12.862;2023-07-28T12:23:04;21.20;99.90
12043;DHT22;6082;49.306;12.862;2023-07-28T12:25:31;21.10;99.90
12043;DHT22;6082;49.306;12.862;2023-07-28T12:27:57;21.10;99.90
12043;DHT22;6082;49.306;12.862;2023-07-28T12:30:23;21.10;99.90
12043;DHT22;6082;49.306;12.862;2023-07-28T12:32:50;21.20;99.90
12043;DHT22;6082;49.306;12.862;2023-07-28T12:35:16;21.20;99.90
12043;DHT22;6082;49.306;12.862;2023-07-28T12:37:42;21.30;99.90
12043;DHT22;6082;49.306;12.862;2023-07-28T12:40:08;21.30;99.90
12043;DHT22;6082;49.306;12.862;2023-07-28T12:42:35;21.40;99.90
12043;DHT22;6082;49.306;12.862;2023-07-28T12:45:01;21.50;99.90
12043;DHT22;6082;49.306;12.862;2023-07-28T12:47:27;21.60;99.90
12043;DHT22;6082;49.306;12.862;2023-07-28T12:49:53;21.70;99.90
12043;DHT22;6082;49.306;12.862;2023-07-28T12:52:18;21.90;99.90
12043;DHT22;6082;49.306;12.862;2023-07-28T12:54:45;22.00;99.90
12043;DHT22;6082;49.306;12.862;2023-07-28T12:57:11;22.00;99.90
12043;DHT22;6082;49.306;12.862;2023-07-28T12:59:38;22.10;99.90
12043;DHT22;6082;49.306;12.862;2023-07-28T13:02:04;22.10;99.90
12043;DHT22;6082;49.306;12.862;2023-07-28T13:04:29;22.30;99.90
12043;DHT22;6082;49.306;12.862;2023-07-28T13:06:55;22.50;99.90
12043;DHT22;6082;49.306;12.862;2023-07-28T13:09:21;22.50;99.90
12043;DHT22;6082;49.306;12.862;2023-07-28T13:11:46;22.60;99.90
12043;DHT22;6082;49.306;12.862;2023-07-28T13:14:12;22.70;99.90
12043;DHT22;6082;49.306;12.862;2023-07-28T13:16:38;22.90;99.90
12043;DHT22;6082;49.306;12.862;2023-07-28T13:19:04;22.90;99.90
12043;DHT22;6082;49.306;12.862;2023-07-28T13:21:31;23.00;99.90
12043;DHT22;6082;49.306;12.862;2023-07-28T13:23:56;23.00;99.90
12043;DHT22;6082;49.306;12.862;2023-07-28T13:26:22;23.10;99.90
12043;DHT22;6082;49.306;12.862;2023-07-28T13:28:48;23.10;99.90
12043;DHT22;6082;49.306;12.862;2023-07-28T13:31:15;23.20;99.90
12043;DHT22;6082;49.306;12.862;2023-07-28T13:33:42;23.30;99.90
12043;DHT22;6082;49.306;12.862;2023-07-28T13:36:08;23.40;99.90
12043;DHT22;6082;49.306;12.862;2023-07-28T13:38:35;23.50;99.90
12043;DHT22;6082;49.306;12.862;2023-07-28T13:41:03;23.50;99.90
12043;DHT22;6082;49.306;12.862;2023-07-28T13:43:29;23.40;99.90
12043;DHT22;6082;49.306;12.862;2023-07-28T13:45:56;23.40;99.90
12043;DHT22;6082;49.306;12.862;2023-07-28T13:48:21;23.40;99.90
12043;DHT22;6082;49.306;12.862;2023-07-28T13:50:47;23.30;99.90
12043;DHT22;6082;49.306;12.862;2023-07-28T13:53:13;23.20;99.90
12043;DHT22;6082;49.306;12.862;2023-07-28T13:55:39;23.20;99.90
12043;DHT22;6082;49.306;12.862;2023-07-28T13:58:04;23.20;99.90
12043;DHT22;6082;49.306;12.862;2023-07-28T14:00:32;23.20;99.90
12043;DHT22;6082;49.306;12.862;2023-07-28T14:02:58;23.30;99.90
12043;DHT22;6082;49.306;12.862;2023-07-28T14:05:24;23.30;99.90
12043;DHT22;6082;49.306;12.862;2023-07-28T14:07:49;23.30;99.90
12043;DHT22;6082;49.306;12.862;2023-07-28T14:10:15;23.20;99.90
12043;DHT22;6082;49.306;12.862;2023-07-28T14:12:41;23.20;99.90
12043;DHT22;6082;49.306;12.862;2023-07-28T14:15:07;23.20;99.90
12043;DHT22;6082;49.306;12.862;2023-07-28T14:17:33;23.20;99.90
12043;DHT22;6082;49.306;12.862;2023-07-28T14:19:59;23.20;99.90
12043;DHT22;6082;49.306;12.862;2023-07-28T14:22:25;23.20;99.90
12043;DHT22;6082;49.306;12.862;2023-07-28T14:24:51;23.10;99.90
12043;DHT22;6082;49.306;12.862;2023-07-28T14:27:16;23.10;99.90
12043;DHT22;6082;49.306;12.862;2023-07-28T14:29:42;23.10;99.90
12043;DHT22;6082;49.306;12.862;2023-07-28T14:32:08;23.10;99.90
12043;DHT22;6082;49.306;12.862;2023-07-28T14:34:34;23.10;99.90
12043;DHT22;6082;49.306;12.862;2023-07-28T14:37:04;23.10;99.90
12043;DHT22;6082;49.306;12.862;2023-07-28T14:39:31;23.20;99.90
12043;DHT22;6082;49.306;12.862;2023-07-28T14:42:00;23.20;99.90
12043;DHT22;6082;49.306;12.862;2023-07-28T14:44:26;23.20;99.90
12043;DHT22;6082;49.306;12.862;2023-07-28T14:46:51;23.20;99.90
12043;DHT22;6082;49.306;12.862;2023-07-28T14:49:17;23.30;99.90
12043;DHT22;6082;49.306;12.862;2023-07-28T14:51:43;23.30;99.90
12043;DHT22;6082;49.306;12.862;2023-07-28T14:54:09;23.30;99.90
12043;DHT22;6082;49.306;12.862;2023-07-28T14:56:35;23.30;99.90
12043;DHT22;6082;49.306;12.862;2023-07-28T14:59:00;23.20;99.90
12043;DHT22;6082;49.306;12.862;2023-07-28T15:01:27;23.30;99.90
12043;DHT22;6082;49.306;12.862;2023-07-28T15:03:53;23.40;99.90
12043;DHT22;6082;49.306;12.862;2023-07-28T15:06:19;23.40;99.90
12043;DHT22;6082;49.306;12.862;2023-07-28T15:08:45;23.40;99.90
12043;DHT22;6082;49.306;12.862;2023-07-28T15:11:10;23.30;99.90
12043;DHT22;6082;49.306;12.862;2023-07-28T15:13:36;23.40;99.90
12043;DHT22;6082;49.306;12.862;2023-07-28T15:16:02;23.40;99.90
12043;DHT22;6082;49.306;12.862;2023-07-28T15:18:28;23.40;99.90
12043;DHT22;6082;49.306;12.862;2023-07-28T15:20:54;23.40;99.90
12043;DHT22;6082;49.306;12.862;2023-07-28T15:23:22;23.40;99.90
12043;DHT22;6082;49.306;12.862;2023-07-28T15:25:48;23.50;99.90
12043;DHT22;6082;49.306;12.862;2023-07-28T15:28:14;23.50;99.90
12043;DHT22;6082;49.306;12.862;2023-07-28T15:30:41;23.40;99.90
12043;DHT22;6082;49.306;12.862;2023-07-28T15:33:11;23.40;99.90
12043;DHT22;6082;49.306;12.862;2023-07-28T15:35:37;23.50;99.90
12043;DHT22;6082;49.306;12.862;2023-07-28T15:38:03;23.50;99.90